sensor_id;sensor_type;location;lat;lon;timestamp;P1;durP1;ratioP1;P2;durP2;ratioP2
65998;SDS011;52766;56.008;37.440;2023-03-31T00:00:18;8.82;;;4.35;;
65998;SDS011;52766;56.008;37.440;2023-03-31T00:02:47;12.25;;;6.53;;
65998;SDS011;52766;56.008;37.440;2023-03-31T00:05:14;8.10;;;3.88;;
65998;SDS011;52766;56.008;37.440;2023-03-31T00:07:43;9.48;;;4.43;;
65998;SDS011;52766;56.008;37.440;2023-03-31T00:10:10;7.78;;;4.03;;
65998;SDS011;52766;56.008;37.440;2023-03-31T00:12:38;7.15;;;3.20;;
65998;SDS011;52766;56.008;37.440;2023-03-31T00:15:05;9.25;;;3.80;;
65998;SDS011;52766;56.008;37.440;2023-03-31T00:17:37;6.68;;;3.47;;
65998;SDS011;52766;56.008;37.440;2023-03-31T00:20:03;6.10;;;3.15;;
65998;SDS011;52766;56.008;37.440;2023-03-31T00:25:28;9.23;;;4.20;;
65998;SDS011;52766;56.008;37.440;2023-03-31T00:27:58;6.22;;;3.17;;
65998;SDS011;52766;56.008;37.440;2023-03-31T00:30:28;5.38;;;3.20;;
65998;SDS011;52766;56.008;37.440;2023-03-31T00:33:04;5.30;;;2.63;;
65998;SDS011;52766;56.008;37.440;2023-03-31T00:35:51;6.43;;;2.88;;
65998;SDS011;52766;56.008;37.440;2023-03-31T00:38:25;7.95;;;2.85;;
65998;SDS011;52766;56.008;37.440;2023-03-31T00:41:10;6.63;;;2.53;;
65998;SDS011;52766;56.008;37.440;2023-03-31T00:44:06;5.20;;;2.00;;
65998;SDS011;52766;56.008;37.440;2023-03-31T00:47:03;5.75;;;2.63;;
65998;SDS011;52766;56.008;37.440;2023-03-31T00:49:44;4.43;;;2.25;;
65998;SDS011;52766;56.008;37.440;2023-03-31T00:58:24;7.45;;;3.10;;
65998;SDS011;52766;56.008;37.440;2023-03-31T01:01:02;20.50;;;7.80;;
65998;SDS011;52766;56.008;37.440;2023-03-31T01:03:54;16.98;;;6.72;;
65998;SDS011;52766;56.008;37.440;2023-03-31T01:06:23;9.90;;;3.63;;
65998;SDS011;52766;56.008;37.440;2023-03-31T01:12:06;7.47;;;3.20;;
65998;SDS011;52766;56.008;37.440;2023-03-31T01:14:35;4.20;;;1.50;;
65998;SDS011;52766;56.008;37.440;2023-03-31T01:17:03;5.38;;;2.92;;
65998;SDS011;52766;56.008;37.440;2023-03-31T01:48:15;4.75;;;2.40;;
65998;SDS011;52766;56.008;37.440;2023-03-31T01:53:48;4.70;;;2.17;;
65998;SDS011;52766;56.008;37.440;2023-03-31T01:56:39;5.57;;;2.80;;
65998;SDS011;52766;56.008;37.440;2023-03-31T01:59:33;5.82;;;2.72;;
65998;SDS011;52766;56.008;37.440;2023-03-31T02:02:10;7.18;;;3.03;;
65998;SDS011;52766;56.008;37.440;2023-03-31T02:04:51;5.82;;;2.28;;
65998;SDS011;52766;56.008;37.440;2023-03-31T02:07:23;6.38;;;2.75;;
65998;SDS011;52766;56.008;37.440;2023-03-31T02:09:58;5.90;;;2.67;;
65998;SDS011;52766;56.008;37.440;2023-03-31T02:12:29;6.68;;;2.70;;
65998;SDS011;52766;56.008;37.440;2023-03-31T02:15:04;6.00;;;2.70;;
65998;SDS011;52766;56.008;37.440;2023-03-31T02:17:37;4.93;;;2.50;;
65998;SDS011;52766;56.008;37.440;2023-03-31T02:24:11;4.45;;;1.77;;
65998;SDS011;52766;56.008;37.440;2023-03-31T02:26:39;6.00;;;3.03;;
65998;SDS011;52766;56.008;37.440;2023-03-31T02:29:22;7.25;;;3.40;;
65998;SDS011;52766;56.008;37.440;2023-03-31T02:34:34;7.63;;;3.10;;
65998;SDS011;52766;56.008;37.440;2023-03-31T02:37:06;9.90;;;3.30;;
65998;SDS011;52766;56.008;37.440;2023-03-31T02:39:36;8.13;;;3.50;;
65998;SDS011;52766;56.008;37.440;2023-03-31T02:42:03;4.78;;;2.42;;
65998;SDS011;52766;56.008;37.440;2023-03-31T02:44:52;9.75;;;3.47;;
65998;SDS011;52766;56.008;37.440;2023-03-31T02:47:19;8.88;;;3.58;;
65998;SDS011;52766;56.008;37.440;2023-03-31T02:49:50;9.35;;;3.67;;
65998;SDS011;52766;56.008;37.440;2023-03-31T02:52:28;8.25;;;4.05;;
65998;SDS011;52766;56.008;37.440;2023-03-31T02:58:39;6.65;;;2.78;;
65998;SDS011;52766;56.008;37.440;2023-03-31T03:07:02;7.03;;;3.05;;
65998;SDS011;52766;56.008;37.440;2023-03-31T03:18:02;10.07;;;3.00;;
65998;SDS011;52766;56.008;37.440;2023-03-31T03:23:56;7.20;;;3.42;;
65998;SDS011;52766;56.008;37.440;2023-03-31T03:27:17;5.63;;;3.00;;
65998;SDS011;52766;56.008;37.440;2023-03-31T04:00:55;9.50;;;3.65;;
65998;SDS011;52766;56.008;37.440;2023-03-31T04:03:26;7.80;;;4.07;;
65998;SDS011;52766;56.008;37.440;2023-03-31T04:09:43;7.43;;;3.78;;
65998;SDS011;52766;56.008;37.440;2023-03-31T04:13:22;8.65;;;3.58;;
65998;SDS011;52766;56.008;37.440;2023-03-31T04:23:42;10.38;;;4.35;;
65998;SDS011;52766;56.008;37.440;2023-03-31T04:26:16;9.23;;;3.75;;
65998;SDS011;52766;56.008;37.440;2023-03-31T04:29:09;7.28;;;3.08;;
65998;SDS011;52766;56.008;37.440;2023-03-31T04:44:56;8.60;;;4.40;;
65998;SDS011;52766;56.008;37.440;2023-03-31T04:55:07;9.02;;;3.70;;
65998;SDS011;52766;56.008;37.440;2023-03-31T04:57:39;6.75;;;3.08;;
65998;SDS011;52766;56.008;37.440;2023-03-31T05:00:17;6.90;;;3.42;;
65998;SDS011;52766;56.008;37.440;2023-03-31T05:02:58;6.32;;;3.10;;
65998;SDS011;52766;56.008;37.440;2023-03-31T05:05:33;6.88;;;3.45;;
65998;SDS011;52766;56.008;37.440;2023-03-31T05:08:15;6.68;;;2.78;;
65998;SDS011;52766;56.008;37.440;2023-03-31T05:10:50;7.53;;;3.70;;
65998;SDS011;52766;56.008;37.440;2023-03-31T05:13:29;12.38;;;4.72;;
65998;SDS011;52766;56.008;37.440;2023-03-31T05:15:58;10.55;;;4.30;;
65998;SDS011;52766;56.008;37.440;2023-03-31T05:18:36;7.57;;;3.60;;
65998;SDS011;52766;56.008;37.440;2023-03-31T05:24:58;6.75;;;3.38;;
65998;SDS011;52766;56.008;37.440;2023-03-31T05:27:33;9.57;;;3.30;;
65998;SDS011;52766;56.008;37.440;2023-03-31T05:33:00;7.00;;;3.38;;
65998;SDS011;52766;56.008;37.440;2023-03-31T05:35:49;8.23;;;3.35;;
65998;SDS011;52766;56.008;37.440;2023-03-31T05:38:22;6.80;;;2.63;;
65998;SDS011;52766;56.008;37.440;2023-03-31T05:40:56;6.07;;;2.85;;
65998;SDS011;52766;56.008;37.440;2023-03-31T05:43:52;5.00;;;2.70;;
65998;SDS011;52766;56.008;37.440;2023-03-31T05:46:21;7.22;;;2.85;;
65998;SDS011;52766;56.008;37.440;2023-03-31T05:48:55;6.80;;;3.50;;
65998;SDS011;52766;56.008;37.440;2023-03-31T05:51:25;5.55;;;2.85;;
65998;SDS011;52766;56.008;37.440;2023-03-31T05:53:59;8.52;;;2.88;;
65998;SDS011;52766;56.008;37.440;2023-03-31T05:56:28;5.63;;;2.33;;
65998;SDS011;52766;56.008;37.440;2023-03-31T05:58:58;7.70;;;2.92;;
65998;SDS011;52766;56.008;37.440;2023-03-31T06:01:32;5.97;;;2.78;;
65998;SDS011;52766;56.008;37.440;2023-03-31T06:04:11;6.93;;;2.53;;
65998;SDS011;52766;56.008;37.440;2023-03-31T06:06:37;6.22;;;2.95;;
65998;SDS011;52766;56.008;37.440;2023-03-31T06:09:12;6.72;;;3.15;;
65998;SDS011;52766;56.008;37.440;2023-03-31T06:11:39;4.45;;;2.17;;
65998;SDS011;52766;56.008;37.440;2023-03-31T06:14:19;5.07;;;2.40;;
65998;SDS011;52766;56.008;37.440;2023-03-31T06:16:49;5.22;;;2.53;;
65998;SDS011;52766;56.008;37.440;2023-03-31T06:19:17;8.30;;;3.17;;
65998;SDS011;52766;56.008;37.440;2023-03-31T06:21:45;8.23;;;2.70;;
65998;SDS011;52766;56.008;37.440;2023-03-31T06:24:22;5.70;;;2.80;;
65998;SDS011;52766;56.008;37.440;2023-03-31T06:26:50;5.53;;;2.63;;
65998;SDS011;52766;56.008;37.440;2023-03-31T06:29:22;5.90;;;2.95;;
65998;SDS011;52766;56.008;37.440;2023-03-31T06:31:51;9.32;;;4.35;;
65998;SDS011;52766;56.008;37.440;2023-03-31T06:34:22;4.55;;;2.28;;
65998;SDS011;52766;56.008;37.440;2023-03-31T06:36:56;6.47;;;3.10;;
65998;SDS011;52766;56.008;37.440;2023-03-31T06:39:33;6.60;;;3.58;;
65998;SDS011;52766;56.008;37.440;2023-03-31T06:42:35;6.38;;;2.80;;
65998;SDS011;52766;56.008;37.440;2023-03-31T06:48:31;7.45;;;2.83;;
65998;SDS011;52766;56.008;37.440;2023-03-31T06:53:53;5.00;;;2.10;;
65998;SDS011;52766;56.008;37.440;2023-03-31T06:56:22;7.60;;;3.33;;
65998;SDS011;52766;56.008;37.440;2023-03-31T07:02:04;7.45;;;3.25;;
65998;SDS011;52766;56.008;37.440;2023-03-31T07:05:27;4.65;;;2.53;;
65998;SDS011;52766;56.008;37.440;2023-03-31T07:08:01;6.93;;;2.85;;
65998;SDS011;52766;56.008;37.440;2023-03-31T07:10:35;8.93;;;3.00;;
65998;SDS011;52766;56.008;37.440;2023-03-31T07:13:07;6.43;;;2.67;;
65998;SDS011;52766;56.008;37.440;2023-03-31T07:15:37;6.40;;;2.67;;
65998;SDS011;52766;56.008;37.440;2023-03-31T07:18:17;9.52;;;2.50;;
65998;SDS011;52766;56.008;37.440;2023-03-31T07:21:10;5.95;;;3.10;;
65998;SDS011;52766;56.008;37.440;2023-03-31T07:23:57;5.38;;;2.53;;
65998;SDS011;52766;56.008;37.440;2023-03-31T07:26:35;5.90;;;2.75;;
65998;SDS011;52766;56.008;37.440;2023-03-31T07:29:30;5.30;;;2.35;;
65998;SDS011;52766;56.008;37.440;2023-03-31T07:33:17;6.38;;;2.50;;
65998;SDS011;52766;56.008;37.440;2023-03-31T07:36:11;9.68;;;3.53;;
65998;SDS011;52766;56.008;37.440;2023-03-31T07:38:51;5.50;;;2.40;;
65998;SDS011;52766;56.008;37.440;2023-03-31T07:57:21;5.47;;;2.40;;
65998;SDS011;52766;56.008;37.440;2023-03-31T07:59:57;5.78;;;2.63;;
65998;SDS011;52766;56.008;37.440;2023-03-31T08:10:28;7.28;;;2.30;;
65998;SDS011;52766;56.008;37.440;2023-03-31T08:13:18;4.90;;;2.30;;
65998;SDS011;52766;56.008;37.440;2023-03-31T08:18:50;8.68;;;3.75;;
65998;SDS011;52766;56.008;37.440;2023-03-31T08:21:43;8.65;;;2.83;;
65998;SDS011;52766;56.008;37.440;2023-03-31T08:24:23;6.30;;;2.72;;
65998;SDS011;52766;56.008;37.440;2023-03-31T08:28:08;6.13;;;2.38;;
65998;SDS011;52766;56.008;37.440;2023-03-31T08:33:58;5.78;;;2.42;;
65998;SDS011;52766;56.008;37.440;2023-03-31T09:24:46;4.38;;;2.30;;
65998;SDS011;52766;56.008;37.440;2023-03-31T09:27:42;8.68;;;3.20;;
65998;SDS011;52766;56.008;37.440;2023-03-31T09:39:03;8.63;;;3.20;;
65998;SDS011;52766;56.008;37.440;2023-03-31T10:02:05;5.45;;;2.92;;
65998;SDS011;52766;56.008;37.440;2023-03-31T10:55:11;11.40;;;2.88;;
65998;SDS011;52766;56.008;37.440;2023-03-31T11:34:13;5.85;;;2.53;;
65998;SDS011;52766;56.008;37.440;2023-03-31T11:49:17;6.88;;;3.10;;
65998;SDS011;52766;56.008;37.440;2023-03-31T11:55:56;4.85;;;2.58;;
65998;SDS011;52766;56.008;37.440;2023-03-31T11:59:03;5.95;;;2.55;;
65998;SDS011;52766;56.008;37.440;2023-03-31T13:12:41;12.10;;;3.25;;
65998;SDS011;52766;56.008;37.440;2023-03-31T13:15:38;8.63;;;3.00;;
65998;SDS011;52766;56.008;37.440;2023-03-31T13:18:14;9.07;;;3.25;;
65998;SDS011;52766;56.008;37.440;2023-03-31T16:22:21;14.52;;;4.93;;
65998;SDS011;52766;56.008;37.440;2023-03-31T16:51:35;25.63;;;9.80;;
65998;SDS011;52766;56.008;37.440;2023-03-31T16:54:21;27.52;;;12.90;;
65998;SDS011;52766;56.008;37.440;2023-03-31T16:57:00;25.60;;;11.50;;
65998;SDS011;52766;56.008;37.440;2023-03-31T17:12:40;20.75;;;7.93;;
65998;SDS011;52766;56.008;37.440;2023-03-31T21:45:08;20.08;;;8.18;;
65998;SDS011;52766;56.008;37.440;2023-03-31T22:06:53;21.02;;;8.73;;
65998;SDS011;52766;56.008;37.440;2023-03-31T22:09:58;19.80;;;8.60;;
65998;SDS011;52766;56.008;37.440;2023-03-31T22:16:18;21.10;;;8.75;;
65998;SDS011;52766;56.008;37.440;2023-03-31T22:19:08;22.95;;;9.20;;
65998;SDS011;52766;56.008;37.440;2023-03-31T22:21:53;19.13;;;8.43;;
65998;SDS011;52766;56.008;37.440;2023-03-31T22:25:06;21.15;;;9.13;;
65998;SDS011;52766;56.008;37.440;2023-03-31T22:28:07;21.08;;;9.30;;
65998;SDS011;52766;56.008;37.440;2023-03-31T22:31:37;17.70;;;7.30;;
65998;SDS011;52766;56.008;37.440;2023-03-31T22:34:42;19.38;;;8.68;;
65998;SDS011;52766;56.008;37.440;2023-03-31T22:37:38;21.02;;;8.10;;
65998;SDS011;52766;56.008;37.440;2023-03-31T22:40:36;26.70;;;11.93;;
65998;SDS011;52766;56.008;37.440;2023-03-31T22:43:47;23.77;;;9.57;;
65998;SDS011;52766;56.008;37.440;2023-03-31T22:49:39;19.65;;;8.80;;
65998;SDS011;52766;56.008;37.440;2023-03-31T22:56:50;21.10;;;8.40;;
65998;SDS011;52766;56.008;37.440;2023-03-31T22:59:55;22.88;;;9.15;;
65998;SDS011;52766;56.008;37.440;2023-03-31T23:02:40;20.50;;;9.27;;
65998;SDS011;52766;56.008;37.440;2023-03-31T23:05:10;19.33;;;7.97;;
65998;SDS011;52766;56.008;37.440;2023-03-31T23:07:38;20.95;;;8.73;;
65998;SDS011;52766;56.008;37.440;2023-03-31T23:14:39;19.00;;;8.20;;
65998;SDS011;52766;56.008;37.440;2023-03-31T23:25:40;17.17;;;7.10;;
65998;SDS011;52766;56.008;37.440;2023-03-31T23:28:34;21.80;;;8.88;;
65998;SDS011;52766;56.008;37.440;2023-03-31T23:31:25;21.65;;;9.48;;
65998;SDS011;52766;56.008;37.440;2023-03-31T23:34:05;21.67;;;9.32;;
65998;SDS011;52766;56.008;37.440;2023-03-31T23:36:33;24.38;;;9.43;;
65998;SDS011;52766;56.008;37.440;2023-03-31T23:39:00;22.30;;;8.52;;
65998;SDS011;52766;56.008;37.440;2023-03-31T23:41:55;26.38;;;9.98;;
65998;SDS011;52766;56.008;37.440;2023-03-31T23:44:23;23.45;;;9.15;;
65998;SDS011;52766;56.008;37.440;2023-03-31T23:46:49;23.42;;;9.70;;
65998;SDS011;52766;56.008;37.440;2023-03-31T23:49:16;24.05;;;9.55;;
65998;SDS011;52766;56.008;37.440;2023-03-31T23:51:54;25.25;;;10.77;;
65998;SDS011;52766;56.008;37.440;2023-03-31T23:55:20;25.55;;;10.20;;
